sensor_id;sensor_type;location;lat;lon;timestamp;P1;durP1;ratioP1;P2;durP2;ratioP2
70547;SDS011;58099;43.406;3.698;2022-08-14T00:00:03;14.73;;;6.20;;
70547;SDS011;58099;43.406;3.698;2022-08-14T00:02:35;13.45;;;6.03;;
70547;SDS011;58099;43.406;3.698;2022-08-14T00:05:00;12.13;;;5.97;;
70547;SDS011;58099;43.406;3.698;2022-08-14T00:07:27;13.53;;;5.50;;
70547;SDS011;58099;43.406;3.698;2022-08-14T00:09:52;11.32;;;4.72;;
70547;SDS011;58099;43.406;3.698;2022-08-14T00:12:18;12.57;;;5.55;;
70547;SDS011;58099;43.406;3.698;2022-08-14T00:14:44;11.45;;;5.53;;
70547;SDS011;58099;43.406;3.698;2022-08-14T00:17:10;12.27;;;5.43;;
70547;SDS011;58099;43.406;3.698;2022-08-14T00:19:36;13.70;;;5.88;;
70547;SDS011;58099;43.406;3.698;2022-08-14T00:22:02;14.13;;;5.83;;
70547;SDS011;58099;43.406;3.698;2022-08-14T00:24:27;13.65;;;5.80;;
70547;SDS011;58099;43.406;3.698;2022-08-14T00:26:53;13.10;;;6.13;;
70547;SDS011;58099;43.406;3.698;2022-08-14T00:29:19;11.73;;;5.93;;
70547;SDS011;58099;43.406;3.698;2022-08-14T00:31:45;13.80;;;6.23;;
70547;SDS011;58099;43.406;3.698;2022-08-14T00:34:10;14.02;;;6.53;;
70547;SDS011;58099;43.406;3.698;2022-08-14T00:36:36;12.80;;;5.53;;
70547;SDS011;58099;43.406;3.698;2022-08-14T00:39:03;15.23;;;5.53;;
70547;SDS011;58099;43.406;3.698;2022-08-14T00:41:29;13.52;;;5.68;;
70547;SDS011;58099;43.406;3.698;2022-08-14T00:43:56;16.40;;;5.43;;
70547;SDS011;58099;43.406;3.698;2022-08-14T00:46:22;14.45;;;6.20;;
70547;SDS011;58099;43.406;3.698;2022-08-14T00:48:48;13.48;;;5.57;;
70547;SDS011;58099;43.406;3.698;2022-08-14T00:51:14;17.25;;;6.40;;
70547;SDS011;58099;43.406;3.698;2022-08-14T00:53:40;13.10;;;5.77;;
70547;SDS011;58099;43.406;3.698;2022-08-14T00:56:06;14.43;;;6.38;;
70547;SDS011;58099;43.406;3.698;2022-08-14T00:58:33;12.00;;;5.63;;
70547;SDS011;58099;43.406;3.698;2022-08-14T01:01:01;12.57;;;6.10;;
70547;SDS011;58099;43.406;3.698;2022-08-14T01:03:30;14.63;;;5.10;;
70547;SDS011;58099;43.406;3.698;2022-08-14T01:05:58;10.85;;;5.65;;
70547;SDS011;58099;43.406;3.698;2022-08-14T01:08:25;15.32;;;6.00;;
70547;SDS011;58099;43.406;3.698;2022-08-14T01:10:53;13.75;;;6.55;;
70547;SDS011;58099;43.406;3.698;2022-08-14T01:13:27;13.20;;;5.00;;
70547;SDS011;58099;43.406;3.698;2022-08-14T01:15:56;16.98;;;6.30;;
70547;SDS011;58099;43.406;3.698;2022-08-14T01:18:24;15.20;;;6.90;;
70547;SDS011;58099;43.406;3.698;2022-08-14T01:21:10;15.18;;;5.80;;
70547;SDS011;58099;43.406;3.698;2022-08-14T01:23:42;11.25;;;5.75;;
70547;SDS011;58099;43.406;3.698;2022-08-14T01:26:12;11.57;;;5.77;;
70547;SDS011;58099;43.406;3.698;2022-08-14T01:28:40;11.40;;;5.32;;
70547;SDS011;58099;43.406;3.698;2022-08-14T01:31:16;14.60;;;6.22;;
70547;SDS011;58099;43.406;3.698;2022-08-14T01:33:44;13.85;;;6.13;;
70547;SDS011;58099;43.406;3.698;2022-08-14T01:36:12;13.25;;;6.15;;
70547;SDS011;58099;43.406;3.698;2022-08-14T01:38:46;12.10;;;5.80;;
70547;SDS011;58099;43.406;3.698;2022-08-14T01:41:19;12.38;;;5.32;;
70547;SDS011;58099;43.406;3.698;2022-08-14T01:43:50;13.80;;;6.03;;
70547;SDS011;58099;43.406;3.698;2022-08-14T01:46:25;16.88;;;5.90;;
70547;SDS011;58099;43.406;3.698;2022-08-14T01:48:52;13.57;;;6.28;;
70547;SDS011;58099;43.406;3.698;2022-08-14T01:51:20;14.73;;;5.70;;
70547;SDS011;58099;43.406;3.698;2022-08-14T01:53:52;16.58;;;6.05;;
70547;SDS011;58099;43.406;3.698;2022-08-14T01:56:20;16.95;;;5.80;;
70547;SDS011;58099;43.406;3.698;2022-08-14T01:58:54;15.63;;;5.18;;
70547;SDS011;58099;43.406;3.698;2022-08-14T02:01:20;13.60;;;5.50;;
70547;SDS011;58099;43.406;3.698;2022-08-14T02:03:47;11.82;;;5.75;;
70547;SDS011;58099;43.406;3.698;2022-08-14T02:06:13;11.90;;;5.90;;
70547;SDS011;58099;43.406;3.698;2022-08-14T02:08:39;15.90;;;6.90;;
70547;SDS011;58099;43.406;3.698;2022-08-14T02:11:06;11.23;;;5.53;;
70547;SDS011;58099;43.406;3.698;2022-08-14T02:13:48;13.43;;;5.80;;
70547;SDS011;58099;43.406;3.698;2022-08-14T02:16:18;14.80;;;5.77;;
70547;SDS011;58099;43.406;3.698;2022-08-14T02:18:45;13.90;;;6.20;;
70547;SDS011;58099;43.406;3.698;2022-08-14T02:21:13;13.45;;;6.07;;
70547;SDS011;58099;43.406;3.698;2022-08-14T02:23:42;12.15;;;5.88;;
70547;SDS011;58099;43.406;3.698;2022-08-14T02:26:13;12.80;;;5.88;;
70547;SDS011;58099;43.406;3.698;2022-08-14T02:28:41;16.33;;;6.07;;
70547;SDS011;58099;43.406;3.698;2022-08-14T02:31:07;13.25;;;5.47;;
70547;SDS011;58099;43.406;3.698;2022-08-14T02:33:33;12.90;;;5.57;;
70547;SDS011;58099;43.406;3.698;2022-08-14T02:36:02;10.27;;;5.25;;
70547;SDS011;58099;43.406;3.698;2022-08-14T02:38:28;11.97;;;5.23;;
70547;SDS011;58099;43.406;3.698;2022-08-14T02:40:57;14.93;;;6.05;;
70547;SDS011;58099;43.406;3.698;2022-08-14T02:43:23;12.73;;;6.10;;
70547;SDS011;58099;43.406;3.698;2022-08-14T02:45:53;14.50;;;6.55;;
70547;SDS011;58099;43.406;3.698;2022-08-14T02:48:18;14.47;;;6.53;;
70547;SDS011;58099;43.406;3.698;2022-08-14T02:50:44;11.60;;;5.85;;
70547;SDS011;58099;43.406;3.698;2022-08-14T02:53:10;11.48;;;5.75;;
70547;SDS011;58099;43.406;3.698;2022-08-14T02:55:36;14.90;;;5.93;;
70547;SDS011;58099;43.406;3.698;2022-08-14T02:58:04;12.80;;;5.18;;
70547;SDS011;58099;43.406;3.698;2022-08-14T03:00:33;10.13;;;5.47;;
70547;SDS011;58099;43.406;3.698;2022-08-14T03:03:00;12.60;;;5.80;;
70547;SDS011;58099;43.406;3.698;2022-08-14T03:05:27;12.68;;;5.90;;
70547;SDS011;58099;43.406;3.698;2022-08-14T03:08:05;11.35;;;6.10;;
70547;SDS011;58099;43.406;3.698;2022-08-14T03:10:32;12.73;;;5.80;;
70547;SDS011;58099;43.406;3.698;2022-08-14T03:12:59;14.15;;;5.72;;
70547;SDS011;58099;43.406;3.698;2022-08-14T03:15:31;9.57;;;5.20;;
70547;SDS011;58099;43.406;3.698;2022-08-14T03:18:17;11.95;;;5.03;;
70547;SDS011;58099;43.406;3.698;2022-08-14T03:20:47;10.95;;;5.22;;
70547;SDS011;58099;43.406;3.698;2022-08-14T03:23:14;15.75;;;5.82;;
70547;SDS011;58099;43.406;3.698;2022-08-14T03:25:40;9.63;;;5.20;;
70547;SDS011;58099;43.406;3.698;2022-08-14T03:28:07;14.93;;;5.50;;
70547;SDS011;58099;43.406;3.698;2022-08-14T03:30:34;13.20;;;5.55;;
70547;SDS011;58099;43.406;3.698;2022-08-14T03:33:02;13.57;;;5.90;;
70547;SDS011;58099;43.406;3.698;2022-08-14T03:35:29;11.82;;;6.07;;
70547;SDS011;58099;43.406;3.698;2022-08-14T03:38:08;13.23;;;5.17;;
70547;SDS011;58099;43.406;3.698;2022-08-14T03:40:36;9.70;;;5.43;;
70547;SDS011;58099;43.406;3.698;2022-08-14T03:43:04;9.93;;;5.32;;
70547;SDS011;58099;43.406;3.698;2022-08-14T03:45:32;12.32;;;5.00;;
70547;SDS011;58099;43.406;3.698;2022-08-14T03:48:00;12.40;;;5.90;;
70547;SDS011;58099;43.406;3.698;2022-08-14T03:50:37;11.70;;;5.67;;
70547;SDS011;58099;43.406;3.698;2022-08-14T03:53:03;12.50;;;5.97;;
70547;SDS011;58099;43.406;3.698;2022-08-14T03:55:29;12.55;;;5.70;;
70547;SDS011;58099;43.406;3.698;2022-08-14T03:57:55;11.40;;;5.37;;
70547;SDS011;58099;43.406;3.698;2022-08-14T04:00:21;13.75;;;5.97;;
70547;SDS011;58099;43.406;3.698;2022-08-14T04:02:47;13.02;;;5.95;;
70547;SDS011;58099;43.406;3.698;2022-08-14T04:05:13;11.87;;;6.37;;
70547;SDS011;58099;43.406;3.698;2022-08-14T04:07:39;12.18;;;5.57;;
70547;SDS011;58099;43.406;3.698;2022-08-14T04:10:06;15.63;;;6.28;;
70547;SDS011;58099;43.406;3.698;2022-08-14T04:12:32;14.27;;;6.00;;
70547;SDS011;58099;43.406;3.698;2022-08-14T04:14:58;11.90;;;6.40;;
70547;SDS011;58099;43.406;3.698;2022-08-14T04:17:24;15.25;;;6.05;;
70547;SDS011;58099;43.406;3.698;2022-08-14T04:19:52;10.98;;;5.63;;
70547;SDS011;58099;43.406;3.698;2022-08-14T04:22:18;11.90;;;5.47;;
70547;SDS011;58099;43.406;3.698;2022-08-14T04:24:44;10.77;;;6.50;;
70547;SDS011;58099;43.406;3.698;2022-08-14T04:27:10;11.55;;;6.28;;
70547;SDS011;58099;43.406;3.698;2022-08-14T04:29:38;11.67;;;5.97;;
70547;SDS011;58099;43.406;3.698;2022-08-14T04:32:06;14.27;;;6.10;;
70547;SDS011;58099;43.406;3.698;2022-08-14T04:34:33;12.10;;;6.07;;
70547;SDS011;58099;43.406;3.698;2022-08-14T04:37:00;10.48;;;6.43;;
70547;SDS011;58099;43.406;3.698;2022-08-14T04:39:44;12.13;;;6.32;;
70547;SDS011;58099;43.406;3.698;2022-08-14T04:42:28;11.30;;;5.90;;
70547;SDS011;58099;43.406;3.698;2022-08-14T04:45:13;10.25;;;5.95;;
70547;SDS011;58099;43.406;3.698;2022-08-14T04:47:40;11.13;;;6.80;;
70547;SDS011;58099;43.406;3.698;2022-08-14T04:50:25;13.80;;;6.03;;
70547;SDS011;58099;43.406;3.698;2022-08-14T04:52:51;13.03;;;6.17;;
70547;SDS011;58099;43.406;3.698;2022-08-14T04:55:17;12.48;;;6.10;;
70547;SDS011;58099;43.406;3.698;2022-08-14T04:57:43;13.17;;;6.13;;
70547;SDS011;58099;43.406;3.698;2022-08-14T05:00:08;11.60;;;6.60;;
70547;SDS011;58099;43.406;3.698;2022-08-14T05:02:35;13.48;;;6.50;;
70547;SDS011;58099;43.406;3.698;2022-08-14T05:05:00;12.43;;;6.17;;
70547;SDS011;58099;43.406;3.698;2022-08-14T05:07:26;13.95;;;6.43;;
70547;SDS011;58099;43.406;3.698;2022-08-14T05:09:52;18.97;;;6.80;;
70547;SDS011;58099;43.406;3.698;2022-08-14T05:12:18;13.90;;;6.95;;
70547;SDS011;58099;43.406;3.698;2022-08-14T05:14:43;13.97;;;6.20;;
70547;SDS011;58099;43.406;3.698;2022-08-14T05:17:10;13.20;;;6.80;;
70547;SDS011;58099;43.406;3.698;2022-08-14T05:19:36;13.63;;;6.30;;
70547;SDS011;58099;43.406;3.698;2022-08-14T05:22:01;13.35;;;6.60;;
70547;SDS011;58099;43.406;3.698;2022-08-14T05:24:27;12.10;;;6.43;;
70547;SDS011;58099;43.406;3.698;2022-08-14T05:26:54;13.53;;;6.47;;
70547;SDS011;58099;43.406;3.698;2022-08-14T05:29:19;13.15;;;6.60;;
70547;SDS011;58099;43.406;3.698;2022-08-14T05:31:45;13.20;;;7.07;;
70547;SDS011;58099;43.406;3.698;2022-08-14T05:34:11;12.57;;;6.40;;
70547;SDS011;58099;43.406;3.698;2022-08-14T05:36:36;9.98;;;5.57;;
70547;SDS011;58099;43.406;3.698;2022-08-14T05:39:03;13.35;;;6.35;;
70547;SDS011;58099;43.406;3.698;2022-08-14T05:41:29;11.55;;;6.57;;
70547;SDS011;58099;43.406;3.698;2022-08-14T05:43:57;12.02;;;6.65;;
70547;SDS011;58099;43.406;3.698;2022-08-14T05:46:23;13.87;;;6.43;;
70547;SDS011;58099;43.406;3.698;2022-08-14T05:48:51;16.40;;;6.88;;
70547;SDS011;58099;43.406;3.698;2022-08-14T05:51:18;15.63;;;7.15;;
70547;SDS011;58099;43.406;3.698;2022-08-14T05:53:45;12.15;;;6.10;;
70547;SDS011;58099;43.406;3.698;2022-08-14T05:56:11;12.10;;;6.45;;
70547;SDS011;58099;43.406;3.698;2022-08-14T05:58:37;12.27;;;6.40;;
70547;SDS011;58099;43.406;3.698;2022-08-14T06:01:03;10.98;;;6.78;;
70547;SDS011;58099;43.406;3.698;2022-08-14T06:03:29;12.77;;;6.55;;
70547;SDS011;58099;43.406;3.698;2022-08-14T06:05:55;10.00;;;5.75;;
70547;SDS011;58099;43.406;3.698;2022-08-14T06:08:27;13.73;;;6.18;;
70547;SDS011;58099;43.406;3.698;2022-08-14T06:10:56;11.95;;;5.97;;
70547;SDS011;58099;43.406;3.698;2022-08-14T06:13:28;13.02;;;6.18;;
70547;SDS011;58099;43.406;3.698;2022-08-14T06:15:54;12.03;;;6.43;;
70547;SDS011;58099;43.406;3.698;2022-08-14T06:18:20;12.18;;;7.25;;
70547;SDS011;58099;43.406;3.698;2022-08-14T06:20:46;14.93;;;6.80;;
70547;SDS011;58099;43.406;3.698;2022-08-14T06:23:11;12.18;;;5.57;;
70547;SDS011;58099;43.406;3.698;2022-08-14T06:25:37;13.13;;;6.13;;
70547;SDS011;58099;43.406;3.698;2022-08-14T06:28:03;11.65;;;5.32;;
70547;SDS011;58099;43.406;3.698;2022-08-14T06:30:30;11.73;;;5.57;;
70547;SDS011;58099;43.406;3.698;2022-08-14T06:32:57;17.30;;;7.38;;
70547;SDS011;58099;43.406;3.698;2022-08-14T06:35:23;13.80;;;6.07;;
70547;SDS011;58099;43.406;3.698;2022-08-14T06:37:51;8.80;;;3.88;;
70547;SDS011;58099;43.406;3.698;2022-08-14T06:40:20;10.80;;;5.97;;
70547;SDS011;58099;43.406;3.698;2022-08-14T06:42:57;10.87;;;5.67;;
70547;SDS011;58099;43.406;3.698;2022-08-14T06:45:24;11.23;;;5.07;;
70547;SDS011;58099;43.406;3.698;2022-08-14T06:47:50;10.60;;;5.90;;
70547;SDS011;58099;43.406;3.698;2022-08-14T06:50:17;12.23;;;4.88;;
70547;SDS011;58099;43.406;3.698;2022-08-14T06:52:45;12.07;;;5.40;;
70547;SDS011;58099;43.406;3.698;2022-08-14T06:55:12;12.77;;;5.30;;
70547;SDS011;58099;43.406;3.698;2022-08-14T06:57:39;12.18;;;5.82;;
70547;SDS011;58099;43.406;3.698;2022-08-14T07:00:19;10.68;;;5.05;;
70547;SDS011;58099;43.406;3.698;2022-08-14T07:02:46;12.47;;;5.73;;
70547;SDS011;58099;43.406;3.698;2022-08-14T07:05:31;9.55;;;4.60;;
70547;SDS011;58099;43.406;3.698;2022-08-14T07:08:30;10.63;;;5.88;;
70547;SDS011;58099;43.406;3.698;2022-08-14T07:10:57;13.43;;;6.32;;
70547;SDS011;58099;43.406;3.698;2022-08-14T07:13:24;18.02;;;7.07;;
70547;SDS011;58099;43.406;3.698;2022-08-14T07:15:51;14.23;;;6.80;;
70547;SDS011;58099;43.406;3.698;2022-08-14T07:18:19;14.30;;;6.93;;
70547;SDS011;58099;43.406;3.698;2022-08-14T07:20:46;14.85;;;6.65;;
70547;SDS011;58099;43.406;3.698;2022-08-14T07:23:11;10.38;;;6.05;;
70547;SDS011;58099;43.406;3.698;2022-08-14T07:25:38;12.50;;;6.47;;
70547;SDS011;58099;43.406;3.698;2022-08-14T07:30:41;18.33;;;7.07;;
70547;SDS011;58099;43.406;3.698;2022-08-14T07:33:08;13.32;;;7.10;;
70547;SDS011;58099;43.406;3.698;2022-08-14T07:35:35;16.37;;;7.63;;
70547;SDS011;58099;43.406;3.698;2022-08-14T07:38:03;16.27;;;8.15;;
70547;SDS011;58099;43.406;3.698;2022-08-14T07:40:29;17.48;;;8.00;;
70547;SDS011;58099;43.406;3.698;2022-08-14T07:42:55;14.30;;;5.95;;
70547;SDS011;58099;43.406;3.698;2022-08-14T07:45:21;15.67;;;7.43;;
70547;SDS011;58099;43.406;3.698;2022-08-14T07:47:47;13.18;;;7.40;;
70547;SDS011;58099;43.406;3.698;2022-08-14T07:50:14;11.18;;;5.45;;
70547;SDS011;58099;43.406;3.698;2022-08-14T07:52:42;10.50;;;4.10;;
70547;SDS011;58099;43.406;3.698;2022-08-14T07:55:09;11.27;;;4.50;;
70547;SDS011;58099;43.406;3.698;2022-08-14T07:57:37;7.90;;;3.58;;
70547;SDS011;58099;43.406;3.698;2022-08-14T08:00:08;6.18;;;3.13;;
70547;SDS011;58099;43.406;3.698;2022-08-14T08:02:38;10.50;;;4.28;;
70547;SDS011;58099;43.406;3.698;2022-08-14T08:05:06;9.10;;;3.40;;
70547;SDS011;58099;43.406;3.698;2022-08-14T08:07:32;6.50;;;2.70;;
70547;SDS011;58099;43.406;3.698;2022-08-14T08:10:03;9.73;;;4.22;;
70547;SDS011;58099;43.406;3.698;2022-08-14T08:12:51;9.90;;;3.58;;
70547;SDS011;58099;43.406;3.698;2022-08-14T08:15:19;9.68;;;3.28;;
70547;SDS011;58099;43.406;3.698;2022-08-14T08:17:45;8.80;;;3.10;;
70547;SDS011;58099;43.406;3.698;2022-08-14T08:20:15;6.50;;;2.97;;
70547;SDS011;58099;43.406;3.698;2022-08-14T08:22:44;7.47;;;3.70;;
70547;SDS011;58099;43.406;3.698;2022-08-14T08:25:11;6.20;;;2.97;;
70547;SDS011;58099;43.406;3.698;2022-08-14T08:27:40;5.75;;;2.40;;
70547;SDS011;58099;43.406;3.698;2022-08-14T08:30:09;7.40;;;2.90;;
70547;SDS011;58099;43.406;3.698;2022-08-14T08:32:40;7.83;;;2.47;;
70547;SDS011;58099;43.406;3.698;2022-08-14T08:35:19;5.18;;;1.85;;
70547;SDS011;58099;43.406;3.698;2022-08-14T08:37:48;4.47;;;1.77;;
70547;SDS011;58099;43.406;3.698;2022-08-14T08:40:24;6.20;;;2.17;;
70547;SDS011;58099;43.406;3.698;2022-08-14T08:42:52;5.38;;;2.08;;
70547;SDS011;58099;43.406;3.698;2022-08-14T08:45:18;5.53;;;2.27;;
70547;SDS011;58099;43.406;3.698;2022-08-14T08:47:45;5.60;;;2.28;;
70547;SDS011;58099;43.406;3.698;2022-08-14T08:50:22;5.90;;;2.15;;
70547;SDS011;58099;43.406;3.698;2022-08-14T08:52:55;7.18;;;2.05;;
70547;SDS011;58099;43.406;3.698;2022-08-14T08:55:26;5.37;;;2.10;;
70547;SDS011;58099;43.406;3.698;2022-08-14T08:58:06;5.03;;;2.13;;
70547;SDS011;58099;43.406;3.698;2022-08-14T09:00:37;5.75;;;2.70;;
70547;SDS011;58099;43.406;3.698;2022-08-14T09:06:01;6.65;;;2.53;;
70547;SDS011;58099;43.406;3.698;2022-08-14T09:08:30;7.97;;;2.83;;
70547;SDS011;58099;43.406;3.698;2022-08-14T09:11:00;7.18;;;2.60;;
70547;SDS011;58099;43.406;3.698;2022-08-14T09:13:34;6.90;;;3.20;;
70547;SDS011;58099;43.406;3.698;2022-08-14T09:16:00;6.88;;;2.78;;
70547;SDS011;58099;43.406;3.698;2022-08-14T09:18:26;7.63;;;3.13;;
70547;SDS011;58099;43.406;3.698;2022-08-14T09:20:53;8.00;;;3.40;;
70547;SDS011;58099;43.406;3.698;2022-08-14T09:23:20;7.30;;;3.10;;
70547;SDS011;58099;43.406;3.698;2022-08-14T09:25:52;7.13;;;3.28;;
70547;SDS011;58099;43.406;3.698;2022-08-14T09:28:18;6.40;;;3.13;;
70547;SDS011;58099;43.406;3.698;2022-08-14T09:30:49;8.68;;;3.30;;
70547;SDS011;58099;43.406;3.698;2022-08-14T09:39:08;8.73;;;3.17;;
70547;SDS011;58099;43.406;3.698;2022-08-14T09:53:09;8.82;;;2.70;;
70547;SDS011;58099;43.406;3.698;2022-08-14T09:55:36;7.90;;;2.80;;
70547;SDS011;58099;43.406;3.698;2022-08-14T10:00:52;6.13;;;2.90;;
70547;SDS011;58099;43.406;3.698;2022-08-14T10:03:32;5.20;;;2.63;;
70547;SDS011;58099;43.406;3.698;2022-08-14T10:06:06;6.90;;;2.88;;
70547;SDS011;58099;43.406;3.698;2022-08-14T10:08:44;5.25;;;2.70;;
70547;SDS011;58099;43.406;3.698;2022-08-14T10:11:26;7.00;;;3.40;;
70547;SDS011;58099;43.406;3.698;2022-08-14T10:13:58;6.40;;;2.93;;
70547;SDS011;58099;43.406;3.698;2022-08-14T10:16:40;6.05;;;2.90;;
70547;SDS011;58099;43.406;3.698;2022-08-14T10:19:08;7.70;;;3.38;;
70547;SDS011;58099;43.406;3.698;2022-08-14T10:21:38;6.72;;;2.97;;
70547;SDS011;58099;43.406;3.698;2022-08-14T10:24:05;6.93;;;3.15;;
70547;SDS011;58099;43.406;3.698;2022-08-14T10:26:35;6.20;;;3.00;;
70547;SDS011;58099;43.406;3.698;2022-08-14T10:29:04;7.30;;;3.03;;
70547;SDS011;58099;43.406;3.698;2022-08-14T10:31:36;6.50;;;2.47;;
70547;SDS011;58099;43.406;3.698;2022-08-14T10:34:08;5.47;;;2.90;;
70547;SDS011;58099;43.406;3.698;2022-08-14T10:36:40;5.10;;;3.10;;
70547;SDS011;58099;43.406;3.698;2022-08-14T10:39:19;5.80;;;2.83;;
70547;SDS011;58099;43.406;3.698;2022-08-14T10:41:46;5.97;;;3.72;;
70547;SDS011;58099;43.406;3.698;2022-08-14T10:44:30;5.18;;;3.40;;
70547;SDS011;58099;43.406;3.698;2022-08-14T10:47:02;6.18;;;3.45;;
70547;SDS011;58099;43.406;3.698;2022-08-14T10:49:35;5.50;;;2.97;;
70547;SDS011;58099;43.406;3.698;2022-08-14T10:54:31;7.57;;;3.25;;
70547;SDS011;58099;43.406;3.698;2022-08-14T11:02:32;5.85;;;3.90;;
70547;SDS011;58099;43.406;3.698;2022-08-14T11:07:39;6.68;;;3.88;;
70547;SDS011;58099;43.406;3.698;2022-08-14T11:10:08;4.47;;;3.08;;
70547;SDS011;58099;43.406;3.698;2022-08-14T11:12:48;5.13;;;3.10;;
70547;SDS011;58099;43.406;3.698;2022-08-14T11:15:21;6.05;;;3.30;;
70547;SDS011;58099;43.406;3.698;2022-08-14T11:17:50;5.30;;;3.08;;
70547;SDS011;58099;43.406;3.698;2022-08-14T11:20:18;5.75;;;3.47;;
70547;SDS011;58099;43.406;3.698;2022-08-14T11:22:46;6.20;;;3.65;;
70547;SDS011;58099;43.406;3.698;2022-08-14T11:25:20;5.78;;;3.38;;
70547;SDS011;58099;43.406;3.698;2022-08-14T11:27:48;6.43;;;3.58;;
70547;SDS011;58099;43.406;3.698;2022-08-14T11:30:20;4.90;;;3.10;;
70547;SDS011;58099;43.406;3.698;2022-08-14T11:32:47;5.90;;;2.90;;
70547;SDS011;58099;43.406;3.698;2022-08-14T11:35:18;5.68;;;3.40;;
70547;SDS011;58099;43.406;3.698;2022-08-14T11:40:30;6.15;;;3.92;;
70547;SDS011;58099;43.406;3.698;2022-08-14T11:42:59;5.95;;;4.50;;
70547;SDS011;58099;43.406;3.698;2022-08-14T11:45:27;5.53;;;4.13;;
70547;SDS011;58099;43.406;3.698;2022-08-14T11:48:00;5.72;;;4.35;;
70547;SDS011;58099;43.406;3.698;2022-08-14T11:50:37;7.85;;;4.20;;
70547;SDS011;58099;43.406;3.698;2022-08-14T11:53:04;6.78;;;4.65;;
70547;SDS011;58099;43.406;3.698;2022-08-14T11:55:35;6.63;;;4.40;;
70547;SDS011;58099;43.406;3.698;2022-08-14T11:58:04;8.65;;;4.82;;
70547;SDS011;58099;43.406;3.698;2022-08-14T12:00:33;9.10;;;5.28;;
70547;SDS011;58099;43.406;3.698;2022-08-14T12:03:13;7.90;;;5.07;;
70547;SDS011;58099;43.406;3.698;2022-08-14T12:05:39;6.97;;;5.03;;
70547;SDS011;58099;43.406;3.698;2022-08-14T12:08:07;6.80;;;4.70;;
70547;SDS011;58099;43.406;3.698;2022-08-14T12:10:36;7.85;;;4.88;;
70547;SDS011;58099;43.406;3.698;2022-08-14T12:13:16;8.38;;;4.97;;
70547;SDS011;58099;43.406;3.698;2022-08-14T12:15:44;6.60;;;4.60;;
70547;SDS011;58099;43.406;3.698;2022-08-14T12:18:13;6.80;;;4.18;;
70547;SDS011;58099;43.406;3.698;2022-08-14T12:20:40;6.50;;;3.80;;
70547;SDS011;58099;43.406;3.698;2022-08-14T12:23:29;5.65;;;2.85;;
70547;SDS011;58099;43.406;3.698;2022-08-14T12:26:07;7.00;;;3.00;;
70547;SDS011;58099;43.406;3.698;2022-08-14T12:28:42;6.30;;;3.13;;
70547;SDS011;58099;43.406;3.698;2022-08-14T12:31:15;5.18;;;2.70;;
70547;SDS011;58099;43.406;3.698;2022-08-14T12:33:53;5.07;;;3.10;;
70547;SDS011;58099;43.406;3.698;2022-08-14T12:36:24;4.07;;;1.60;;
70547;SDS011;58099;43.406;3.698;2022-08-14T12:38:57;4.15;;;1.65;;
70547;SDS011;58099;43.406;3.698;2022-08-14T12:41:26;5.07;;;2.33;;
70547;SDS011;58099;43.406;3.698;2022-08-14T12:43:59;4.97;;;2.15;;
70547;SDS011;58099;43.406;3.698;2022-08-14T12:46:49;4.73;;;2.20;;
70547;SDS011;58099;43.406;3.698;2022-08-14T12:49:15;5.53;;;2.33;;
70547;SDS011;58099;43.406;3.698;2022-08-14T12:51:43;4.45;;;2.17;;
70547;SDS011;58099;43.406;3.698;2022-08-14T12:54:21;4.50;;;2.15;;
70547;SDS011;58099;43.406;3.698;2022-08-14T12:56:47;6.90;;;2.40;;
70547;SDS011;58099;43.406;3.698;2022-08-14T12:59:14;4.20;;;2.10;;
70547;SDS011;58099;43.406;3.698;2022-08-14T13:01:40;4.90;;;2.28;;
70547;SDS011;58099;43.406;3.698;2022-08-14T13:04:11;5.65;;;2.72;;
70547;SDS011;58099;43.406;3.698;2022-08-14T13:06:40;5.70;;;3.13;;
70547;SDS011;58099;43.406;3.698;2022-08-14T13:09:12;6.15;;;2.85;;
70547;SDS011;58099;43.406;3.698;2022-08-14T13:11:46;5.50;;;2.93;;
70547;SDS011;58099;43.406;3.698;2022-08-14T13:14:16;6.35;;;2.90;;
70547;SDS011;58099;43.406;3.698;2022-08-14T13:16:53;4.63;;;2.45;;
70547;SDS011;58099;43.406;3.698;2022-08-14T13:19:19;3.90;;;2.40;;
70547;SDS011;58099;43.406;3.698;2022-08-14T13:21:46;5.40;;;2.60;;
70547;SDS011;58099;43.406;3.698;2022-08-14T13:24:13;4.47;;;2.10;;
70547;SDS011;58099;43.406;3.698;2022-08-14T13:26:47;4.97;;;1.95;;
70547;SDS011;58099;43.406;3.698;2022-08-14T13:29:19;5.38;;;2.47;;
70547;SDS011;58099;43.406;3.698;2022-08-14T13:31:51;8.65;;;2.45;;
70547;SDS011;58099;43.406;3.698;2022-08-14T13:34:22;6.68;;;2.72;;
70547;SDS011;58099;43.406;3.698;2022-08-14T13:36:49;9.37;;;2.53;;
70547;SDS011;58099;43.406;3.698;2022-08-14T13:39:17;5.13;;;2.40;;
70547;SDS011;58099;43.406;3.698;2022-08-14T13:41:45;5.65;;;2.65;;
70547;SDS011;58099;43.406;3.698;2022-08-14T13:44:12;6.82;;;2.10;;
70547;SDS011;58099;43.406;3.698;2022-08-14T13:46:39;5.25;;;2.40;;
70547;SDS011;58099;43.406;3.698;2022-08-14T13:49:06;7.17;;;2.47;;
70547;SDS011;58099;43.406;3.698;2022-08-14T13:51:36;6.15;;;2.13;;
70547;SDS011;58099;43.406;3.698;2022-08-14T13:54:04;6.15;;;2.47;;
70547;SDS011;58099;43.406;3.698;2022-08-14T13:56:30;5.88;;;2.25;;
70547;SDS011;58099;43.406;3.698;2022-08-14T13:59:01;6.30;;;2.95;;
70547;SDS011;58099;43.406;3.698;2022-08-14T14:01:27;9.80;;;3.03;;
70547;SDS011;58099;43.406;3.698;2022-08-14T14:03:54;9.02;;;3.42;;
70547;SDS011;58099;43.406;3.698;2022-08-14T14:06:24;8.13;;;2.80;;
70547;SDS011;58099;43.406;3.698;2022-08-14T14:08:52;5.68;;;2.70;;
70547;SDS011;58099;43.406;3.698;2022-08-14T14:11:19;6.37;;;2.00;;
70547;SDS011;58099;43.406;3.698;2022-08-14T14:13:49;6.75;;;2.25;;
70547;SDS011;58099;43.406;3.698;2022-08-14T14:16:17;6.90;;;2.63;;
70547;SDS011;58099;43.406;3.698;2022-08-14T14:18:46;7.20;;;2.93;;
70547;SDS011;58099;43.406;3.698;2022-08-14T14:21:17;7.65;;;2.65;;
70547;SDS011;58099;43.406;3.698;2022-08-14T14:23:44;7.68;;;2.85;;
70547;SDS011;58099;43.406;3.698;2022-08-14T14:26:14;8.35;;;2.97;;
70547;SDS011;58099;43.406;3.698;2022-08-14T14:28:41;8.02;;;2.55;;
70547;SDS011;58099;43.406;3.698;2022-08-14T14:31:10;6.32;;;2.58;;
70547;SDS011;58099;43.406;3.698;2022-08-14T14:33:40;7.18;;;2.50;;
70547;SDS011;58099;43.406;3.698;2022-08-14T14:36:09;7.40;;;2.22;;
70547;SDS011;58099;43.406;3.698;2022-08-14T14:38:37;6.93;;;1.80;;
70547;SDS011;58099;43.406;3.698;2022-08-14T14:41:09;5.68;;;2.45;;
70547;SDS011;58099;43.406;3.698;2022-08-14T14:43:38;5.32;;;2.10;;
70547;SDS011;58099;43.406;3.698;2022-08-14T14:46:08;3.80;;;2.28;;
70547;SDS011;58099;43.406;3.698;2022-08-14T14:48:38;4.00;;;1.80;;
70547;SDS011;58099;43.406;3.698;2022-08-14T14:51:13;4.57;;;2.00;;
70547;SDS011;58099;43.406;3.698;2022-08-14T14:53:41;6.03;;;2.28;;
70547;SDS011;58099;43.406;3.698;2022-08-14T14:56:07;5.45;;;3.03;;
70547;SDS011;58099;43.406;3.698;2022-08-14T14:58:37;7.55;;;3.33;;
70547;SDS011;58099;43.406;3.698;2022-08-14T15:01:07;6.00;;;3.03;;
70547;SDS011;58099;43.406;3.698;2022-08-14T15:03:34;6.18;;;3.20;;
70547;SDS011;58099;43.406;3.698;2022-08-14T15:06:02;6.15;;;2.80;;
70547;SDS011;58099;43.406;3.698;2022-08-14T15:08:29;6.38;;;3.33;;
70547;SDS011;58099;43.406;3.698;2022-08-14T15:10:56;5.10;;;3.30;;
70547;SDS011;58099;43.406;3.698;2022-08-14T15:13:23;5.55;;;3.05;;
70547;SDS011;58099;43.406;3.698;2022-08-14T15:15:53;5.50;;;3.42;;
70547;SDS011;58099;43.406;3.698;2022-08-14T15:18:19;6.40;;;3.30;;
70547;SDS011;58099;43.406;3.698;2022-08-14T15:20:46;5.20;;;3.08;;
70547;SDS011;58099;43.406;3.698;2022-08-14T15:23:13;6.32;;;2.78;;
70547;SDS011;58099;43.406;3.698;2022-08-14T15:25:41;4.72;;;2.47;;
70547;SDS011;58099;43.406;3.698;2022-08-14T15:28:11;6.75;;;2.60;;
70547;SDS011;58099;43.406;3.698;2022-08-14T15:30:38;5.43;;;2.58;;